sensor_id;sensor_type;location;lat;lon;timestamp;P1;durP1;ratioP1;P2;durP2;ratioP2
65174;SDS011;51761;42.126;24.752;2023-02-15T00:00:19;28.10;;;11.68;;
65174;SDS011;51761;42.126;24.752;2023-02-15T00:02:45;22.77;;;10.27;;
65174;SDS011;51761;42.126;24.752;2023-02-15T00:05:10;21.38;;;12.32;;
65174;SDS011;51761;42.126;24.752;2023-02-15T00:07:36;25.00;;;12.50;;
65174;SDS011;51761;42.126;24.752;2023-02-15T00:10:01;26.80;;;13.20;;
65174;SDS011;51761;42.126;24.752;2023-02-15T00:12:27;27.83;;;13.52;;
65174;SDS011;51761;42.126;24.752;2023-02-15T00:14:53;25.77;;;13.73;;
65174;SDS011;51761;42.126;24.752;2023-02-15T00:17:19;28.63;;;12.85;;
65174;SDS011;51761;42.126;24.752;2023-02-15T00:19:45;26.05;;;14.15;;
65174;SDS011;51761;42.126;24.752;2023-02-15T00:22:11;29.05;;;14.77;;
65174;SDS011;51761;42.126;24.752;2023-02-15T00:24:36;27.52;;;13.63;;
65174;SDS011;51761;42.126;24.752;2023-02-15T00:27:02;31.25;;;14.85;;
65174;SDS011;51761;42.126;24.752;2023-02-15T00:29:27;28.45;;;13.75;;
65174;SDS011;51761;42.126;24.752;2023-02-15T00:31:53;27.35;;;14.00;;
65174;SDS011;51761;42.126;24.752;2023-02-15T00:34:19;26.98;;;13.20;;
65174;SDS011;51761;42.126;24.752;2023-02-15T00:36:47;28.95;;;13.60;;
65174;SDS011;51761;42.126;24.752;2023-02-15T00:39:14;28.45;;;15.15;;
65174;SDS011;51761;42.126;24.752;2023-02-15T00:41:40;31.90;;;14.77;;
65174;SDS011;51761;42.126;24.752;2023-02-15T00:44:06;31.50;;;15.05;;
65174;SDS011;51761;42.126;24.752;2023-02-15T00:46:32;28.00;;;14.45;;
65174;SDS011;51761;42.126;24.752;2023-02-15T00:48:58;28.23;;;13.95;;
65174;SDS011;51761;42.126;24.752;2023-02-15T00:51:23;29.92;;;14.90;;
65174;SDS011;51761;42.126;24.752;2023-02-15T00:53:49;29.33;;;14.40;;
65174;SDS011;51761;42.126;24.752;2023-02-15T00:56:15;28.92;;;13.63;;
65174;SDS011;51761;42.126;24.752;2023-02-15T00:58:41;27.77;;;13.95;;
65174;SDS011;51761;42.126;24.752;2023-02-15T01:01:10;27.83;;;13.23;;
65174;SDS011;51761;42.126;24.752;2023-02-15T01:03:37;31.10;;;13.57;;
65174;SDS011;51761;42.126;24.752;2023-02-15T01:06:03;32.78;;;15.65;;
65174;SDS011;51761;42.126;24.752;2023-02-15T01:08:29;30.98;;;15.65;;
65174;SDS011;51761;42.126;24.752;2023-02-15T01:10:55;31.70;;;14.20;;
65174;SDS011;51761;42.126;24.752;2023-02-15T01:13:21;30.88;;;14.13;;
65174;SDS011;51761;42.126;24.752;2023-02-15T01:15:52;31.73;;;15.45;;
65174;SDS011;51761;42.126;24.752;2023-02-15T01:18:19;40.80;;;16.10;;
65174;SDS011;51761;42.126;24.752;2023-02-15T01:20:45;30.90;;;15.05;;
65174;SDS011;51761;42.126;24.752;2023-02-15T01:23:10;36.58;;;17.02;;
65174;SDS011;51761;42.126;24.752;2023-02-15T01:25:36;34.28;;;15.60;;
65174;SDS011;51761;42.126;24.752;2023-02-15T01:28:02;32.13;;;15.60;;
65174;SDS011;51761;42.126;24.752;2023-02-15T01:30:28;32.95;;;15.77;;
65174;SDS011;51761;42.126;24.752;2023-02-15T01:32:53;31.48;;;15.45;;
65174;SDS011;51761;42.126;24.752;2023-02-15T01:35:19;33.08;;;16.35;;
65174;SDS011;51761;42.126;24.752;2023-02-15T01:37:44;35.20;;;16.20;;
65174;SDS011;51761;42.126;24.752;2023-02-15T01:40:15;29.42;;;15.48;;
65174;SDS011;51761;42.126;24.752;2023-02-15T01:42:42;35.70;;;16.73;;
65174;SDS011;51761;42.126;24.752;2023-02-15T01:45:22;32.03;;;15.50;;
65174;SDS011;51761;42.126;24.752;2023-02-15T01:53:11;31.40;;;15.27;;
65174;SDS011;51761;42.126;24.752;2023-02-15T01:58:42;34.15;;;17.17;;
65174;SDS011;51761;42.126;24.752;2023-02-15T02:01:09;33.58;;;16.33;;
65174;SDS011;51761;42.126;24.752;2023-02-15T02:06:21;35.63;;;17.02;;
65174;SDS011;51761;42.126;24.752;2023-02-15T02:08:48;36.78;;;17.92;;
65174;SDS011;51761;42.126;24.752;2023-02-15T02:11:14;38.92;;;17.30;;
65174;SDS011;51761;42.126;24.752;2023-02-15T02:13:40;35.20;;;18.02;;
65174;SDS011;51761;42.126;24.752;2023-02-15T02:16:13;35.50;;;16.42;;
65174;SDS011;51761;42.126;24.752;2023-02-15T02:19:00;36.65;;;17.13;;
65174;SDS011;51761;42.126;24.752;2023-02-15T02:21:50;28.75;;;15.55;;
65174;SDS011;51761;42.126;24.752;2023-02-15T02:30:20;34.58;;;16.70;;
65174;SDS011;51761;42.126;24.752;2023-02-15T02:33:14;31.25;;;16.27;;
65174;SDS011;51761;42.126;24.752;2023-02-15T02:41:38;31.95;;;15.32;;
65174;SDS011;51761;42.126;24.752;2023-02-15T02:44:28;31.23;;;15.35;;
65174;SDS011;51761;42.126;24.752;2023-02-15T02:46:59;29.48;;;15.65;;
65174;SDS011;51761;42.126;24.752;2023-02-15T02:52:00;30.05;;;14.85;;
65174;SDS011;51761;42.126;24.752;2023-02-15T02:54:27;43.60;;;18.25;;
65174;SDS011;51761;42.126;24.752;2023-02-15T02:56:53;38.78;;;17.85;;
65174;SDS011;51761;42.126;24.752;2023-02-15T02:59:26;39.38;;;17.88;;
65174;SDS011;51761;42.126;24.752;2023-02-15T03:04:35;39.08;;;17.67;;
65174;SDS011;51761;42.126;24.752;2023-02-15T03:07:07;40.58;;;18.33;;
65174;SDS011;51761;42.126;24.752;2023-02-15T03:09:41;40.45;;;18.02;;
65174;SDS011;51761;42.126;24.752;2023-02-15T03:12:11;43.53;;;18.77;;
65174;SDS011;51761;42.126;24.752;2023-02-15T03:14:42;44.33;;;19.52;;
65174;SDS011;51761;42.126;24.752;2023-02-15T03:17:11;43.60;;;19.17;;
65174;SDS011;51761;42.126;24.752;2023-02-15T03:19:38;41.10;;;19.98;;
65174;SDS011;51761;42.126;24.752;2023-02-15T03:22:10;44.10;;;19.63;;
65174;SDS011;51761;42.126;24.752;2023-02-15T03:24:40;45.83;;;20.50;;
65174;SDS011;51761;42.126;24.752;2023-02-15T03:27:08;44.25;;;19.90;;
65174;SDS011;51761;42.126;24.752;2023-02-15T03:29:47;47.50;;;19.55;;
65174;SDS011;51761;42.126;24.752;2023-02-15T03:32:17;41.47;;;18.50;;
65174;SDS011;51761;42.126;24.752;2023-02-15T03:34:44;46.10;;;19.05;;
65174;SDS011;51761;42.126;24.752;2023-02-15T03:37:28;39.08;;;18.42;;
65174;SDS011;51761;42.126;24.752;2023-02-15T03:43:00;34.00;;;16.70;;
65174;SDS011;51761;42.126;24.752;2023-02-15T03:45:38;37.25;;;17.10;;
65174;SDS011;51761;42.126;24.752;2023-02-15T03:48:20;40.25;;;17.83;;
65174;SDS011;51761;42.126;24.752;2023-02-15T03:50:51;41.78;;;19.25;;
65174;SDS011;51761;42.126;24.752;2023-02-15T03:53:41;40.83;;;19.40;;
65174;SDS011;51761;42.126;24.752;2023-02-15T03:56:08;38.45;;;17.27;;
65174;SDS011;51761;42.126;24.752;2023-02-15T03:58:33;43.83;;;18.13;;
65174;SDS011;51761;42.126;24.752;2023-02-15T04:01:24;41.70;;;18.67;;
65174;SDS011;51761;42.126;24.752;2023-02-15T04:04:17;41.13;;;18.67;;
65174;SDS011;51761;42.126;24.752;2023-02-15T04:06:45;39.50;;;18.45;;
65174;SDS011;51761;42.126;24.752;2023-02-15T04:09:11;39.97;;;17.77;;
65174;SDS011;51761;42.126;24.752;2023-02-15T04:11:56;42.90;;;18.45;;
65174;SDS011;51761;42.126;24.752;2023-02-15T04:14:21;36.95;;;18.35;;
65174;SDS011;51761;42.126;24.752;2023-02-15T04:17:06;39.53;;;18.70;;
65174;SDS011;51761;42.126;24.752;2023-02-15T04:19:32;44.17;;;19.30;;
65174;SDS011;51761;42.126;24.752;2023-02-15T04:22:16;31.23;;;14.32;;
65174;SDS011;51761;42.126;24.752;2023-02-15T04:25:00;38.85;;;18.25;;
65174;SDS011;51761;42.126;24.752;2023-02-15T04:27:35;37.03;;;17.63;;
65174;SDS011;51761;42.126;24.752;2023-02-15T04:30:01;40.13;;;18.50;;
65174;SDS011;51761;42.126;24.752;2023-02-15T04:32:27;40.42;;;17.67;;
65174;SDS011;51761;42.126;24.752;2023-02-15T04:34:52;36.65;;;18.52;;
65174;SDS011;51761;42.126;24.752;2023-02-15T04:37:18;39.72;;;17.48;;
65174;SDS011;51761;42.126;24.752;2023-02-15T04:39:44;40.75;;;18.38;;
65174;SDS011;51761;42.126;24.752;2023-02-15T04:42:09;40.13;;;19.08;;
65174;SDS011;51761;42.126;24.752;2023-02-15T04:44:35;43.53;;;19.40;;
65174;SDS011;51761;42.126;24.752;2023-02-15T04:47:00;40.63;;;19.08;;
65174;SDS011;51761;42.126;24.752;2023-02-15T04:49:26;44.88;;;20.05;;
65174;SDS011;51761;42.126;24.752;2023-02-15T04:51:51;40.47;;;19.35;;
65174;SDS011;51761;42.126;24.752;2023-02-15T04:54:17;42.67;;;19.52;;
65174;SDS011;51761;42.126;24.752;2023-02-15T04:56:42;39.40;;;17.75;;
65174;SDS011;51761;42.126;24.752;2023-02-15T04:59:11;44.38;;;19.88;;
65174;SDS011;51761;42.126;24.752;2023-02-15T05:01:38;44.88;;;20.10;;
65174;SDS011;51761;42.126;24.752;2023-02-15T05:04:03;46.78;;;18.63;;
65174;SDS011;51761;42.126;24.752;2023-02-15T05:06:29;44.88;;;19.42;;
65174;SDS011;51761;42.126;24.752;2023-02-15T05:08:54;47.42;;;21.52;;
65174;SDS011;51761;42.126;24.752;2023-02-15T05:11:20;46.92;;;20.73;;
65174;SDS011;51761;42.126;24.752;2023-02-15T05:13:46;44.35;;;20.55;;
65174;SDS011;51761;42.126;24.752;2023-02-15T05:16:11;44.10;;;19.65;;
65174;SDS011;51761;42.126;24.752;2023-02-15T05:18:37;43.83;;;18.75;;
65174;SDS011;51761;42.126;24.752;2023-02-15T05:21:03;40.78;;;18.40;;
65174;SDS011;51761;42.126;24.752;2023-02-15T05:23:28;46.88;;;19.02;;
65174;SDS011;51761;42.126;24.752;2023-02-15T05:25:54;42.90;;;19.27;;
65174;SDS011;51761;42.126;24.752;2023-02-15T05:28:38;37.75;;;17.75;;
65174;SDS011;51761;42.126;24.752;2023-02-15T05:31:05;42.33;;;19.67;;
65174;SDS011;51761;42.126;24.752;2023-02-15T05:33:41;42.53;;;19.10;;
65174;SDS011;51761;42.126;24.752;2023-02-15T05:36:08;47.20;;;18.83;;
65174;SDS011;51761;42.126;24.752;2023-02-15T05:38:34;40.13;;;18.13;;
65174;SDS011;51761;42.126;24.752;2023-02-15T05:41:02;44.85;;;20.13;;
65174;SDS011;51761;42.126;24.752;2023-02-15T05:43:29;39.53;;;18.30;;
65174;SDS011;51761;42.126;24.752;2023-02-15T05:45:55;39.92;;;19.55;;
65174;SDS011;51761;42.126;24.752;2023-02-15T05:48:23;49.85;;;19.13;;
65174;SDS011;51761;42.126;24.752;2023-02-15T05:50:56;41.70;;;19.38;;
65174;SDS011;51761;42.126;24.752;2023-02-15T05:53:24;42.22;;;20.00;;
65174;SDS011;51761;42.126;24.752;2023-02-15T05:55:49;41.38;;;19.38;;
65174;SDS011;51761;42.126;24.752;2023-02-15T05:58:15;40.38;;;17.77;;
65174;SDS011;51761;42.126;24.752;2023-02-15T06:00:40;35.05;;;17.63;;
65174;SDS011;51761;42.126;24.752;2023-02-15T06:03:05;41.58;;;19.05;;
65174;SDS011;51761;42.126;24.752;2023-02-15T06:05:31;36.67;;;18.58;;
65174;SDS011;51761;42.126;24.752;2023-02-15T06:07:56;33.97;;;17.15;;
65174;SDS011;51761;42.126;24.752;2023-02-15T06:10:22;40.13;;;19.38;;
65174;SDS011;51761;42.126;24.752;2023-02-15T06:12:47;40.15;;;18.83;;
65174;SDS011;51761;42.126;24.752;2023-02-15T06:15:13;42.05;;;18.05;;
65174;SDS011;51761;42.126;24.752;2023-02-15T06:17:40;36.20;;;19.77;;
65174;SDS011;51761;42.126;24.752;2023-02-15T06:20:07;35.78;;;17.25;;
65174;SDS011;51761;42.126;24.752;2023-02-15T06:22:33;33.85;;;17.05;;
65174;SDS011;51761;42.126;24.752;2023-02-15T06:24:59;32.03;;;17.00;;
65174;SDS011;51761;42.126;24.752;2023-02-15T06:27:24;37.20;;;16.50;;
65174;SDS011;51761;42.126;24.752;2023-02-15T06:29:50;32.13;;;17.60;;
65174;SDS011;51761;42.126;24.752;2023-02-15T06:32:15;35.25;;;17.60;;
65174;SDS011;51761;42.126;24.752;2023-02-15T06:34:40;33.95;;;17.23;;
65174;SDS011;51761;42.126;24.752;2023-02-15T06:37:06;35.35;;;18.13;;
65174;SDS011;51761;42.126;24.752;2023-02-15T06:39:33;42.58;;;19.30;;
65174;SDS011;51761;42.126;24.752;2023-02-15T06:41:59;35.88;;;18.75;;
65174;SDS011;51761;42.126;24.752;2023-02-15T06:44:24;35.03;;;18.17;;
65174;SDS011;51761;42.126;24.752;2023-02-15T06:46:50;33.60;;;17.38;;
65174;SDS011;51761;42.126;24.752;2023-02-15T06:49:15;41.70;;;18.33;;
65174;SDS011;51761;42.126;24.752;2023-02-15T06:51:41;37.33;;;18.10;;
65174;SDS011;51761;42.126;24.752;2023-02-15T06:54:06;31.30;;;16.25;;
65174;SDS011;51761;42.126;24.752;2023-02-15T06:56:31;30.48;;;17.88;;
65174;SDS011;51761;42.126;24.752;2023-02-15T06:58:57;34.58;;;17.83;;
65174;SDS011;51761;42.126;24.752;2023-02-15T07:01:23;31.15;;;16.23;;
65174;SDS011;51761;42.126;24.752;2023-02-15T07:03:48;31.02;;;16.63;;
65174;SDS011;51761;42.126;24.752;2023-02-15T07:06:14;33.60;;;16.73;;
65174;SDS011;51761;42.126;24.752;2023-02-15T07:08:39;31.73;;;17.08;;
65174;SDS011;51761;42.126;24.752;2023-02-15T07:11:05;32.38;;;18.60;;
65174;SDS011;51761;42.126;24.752;2023-02-15T07:13:50;36.28;;;17.88;;
65174;SDS011;51761;42.126;24.752;2023-02-15T07:16:17;34.28;;;17.10;;
65174;SDS011;51761;42.126;24.752;2023-02-15T07:18:43;32.28;;;16.13;;
65174;SDS011;51761;42.126;24.752;2023-02-15T07:21:09;32.63;;;16.90;;
65174;SDS011;51761;42.126;24.752;2023-02-15T07:23:38;35.28;;;16.77;;
65174;SDS011;51761;42.126;24.752;2023-02-15T07:26:04;33.28;;;15.57;;
65174;SDS011;51761;42.126;24.752;2023-02-15T07:28:31;30.60;;;15.40;;
65174;SDS011;51761;42.126;24.752;2023-02-15T07:30:58;26.80;;;14.90;;
65174;SDS011;51761;42.126;24.752;2023-02-15T07:33:23;31.00;;;15.77;;
65174;SDS011;51761;42.126;24.752;2023-02-15T07:35:56;28.35;;;15.65;;
65174;SDS011;51761;42.126;24.752;2023-02-15T07:38:23;30.40;;;16.85;;
65174;SDS011;51761;42.126;24.752;2023-02-15T07:40:51;32.53;;;16.50;;
65174;SDS011;51761;42.126;24.752;2023-02-15T07:43:17;33.83;;;16.83;;
65174;SDS011;51761;42.126;24.752;2023-02-15T07:45:42;28.67;;;15.60;;
65174;SDS011;51761;42.126;24.752;2023-02-15T07:48:08;29.77;;;15.20;;
65174;SDS011;51761;42.126;24.752;2023-02-15T07:50:34;30.92;;;15.32;;
65174;SDS011;51761;42.126;24.752;2023-02-15T07:53:01;26.83;;;14.13;;
65174;SDS011;51761;42.126;24.752;2023-02-15T07:55:28;31.13;;;15.63;;
65174;SDS011;51761;42.126;24.752;2023-02-15T07:57:53;34.72;;;16.85;;
65174;SDS011;51761;42.126;24.752;2023-02-15T08:00:19;29.33;;;15.50;;
65174;SDS011;51761;42.126;24.752;2023-02-15T08:02:52;34.22;;;16.88;;
65174;SDS011;51761;42.126;24.752;2023-02-15T08:05:37;33.92;;;16.40;;
65174;SDS011;51761;42.126;24.752;2023-02-15T08:08:03;29.70;;;14.75;;
65174;SDS011;51761;42.126;24.752;2023-02-15T08:10:29;28.70;;;15.88;;
65174;SDS011;51761;42.126;24.752;2023-02-15T08:13:13;35.65;;;16.40;;
65174;SDS011;51761;42.126;24.752;2023-02-15T08:15:39;31.50;;;15.68;;
65174;SDS011;51761;42.126;24.752;2023-02-15T08:18:04;28.58;;;14.50;;
65174;SDS011;51761;42.126;24.752;2023-02-15T08:20:30;26.05;;;14.77;;
65174;SDS011;51761;42.126;24.752;2023-02-15T08:22:56;31.00;;;15.48;;
65174;SDS011;51761;42.126;24.752;2023-02-15T08:25:21;28.65;;;14.82;;
65174;SDS011;51761;42.126;24.752;2023-02-15T08:27:47;28.65;;;15.55;;
65174;SDS011;51761;42.126;24.752;2023-02-15T08:30:12;30.65;;;15.98;;
65174;SDS011;51761;42.126;24.752;2023-02-15T08:32:39;27.85;;;15.23;;
65174;SDS011;51761;42.126;24.752;2023-02-15T08:35:05;28.52;;;16.17;;
65174;SDS011;51761;42.126;24.752;2023-02-15T08:37:30;33.75;;;16.25;;
65174;SDS011;51761;42.126;24.752;2023-02-15T08:39:56;24.33;;;15.27;;
65174;SDS011;51761;42.126;24.752;2023-02-15T08:42:21;27.60;;;15.55;;
65174;SDS011;51761;42.126;24.752;2023-02-15T08:44:47;29.27;;;15.38;;
65174;SDS011;51761;42.126;24.752;2023-02-15T08:47:15;27.30;;;15.50;;
65174;SDS011;51761;42.126;24.752;2023-02-15T08:49:40;29.13;;;15.85;;
65174;SDS011;51761;42.126;24.752;2023-02-15T08:52:06;29.80;;;15.68;;
65174;SDS011;51761;42.126;24.752;2023-02-15T08:54:32;28.60;;;15.70;;
65174;SDS011;51761;42.126;24.752;2023-02-15T08:56:57;28.40;;;15.48;;
65174;SDS011;51761;42.126;24.752;2023-02-15T08:59:23;30.45;;;16.25;;
65174;SDS011;51761;42.126;24.752;2023-02-15T09:01:51;27.90;;;14.52;;
65174;SDS011;51761;42.126;24.752;2023-02-15T09:04:17;30.88;;;15.40;;
65174;SDS011;51761;42.126;24.752;2023-02-15T09:06:44;28.05;;;15.70;;
65174;SDS011;51761;42.126;24.752;2023-02-15T09:09:11;29.88;;;15.48;;
65174;SDS011;51761;42.126;24.752;2023-02-15T09:11:38;30.63;;;16.25;;
65174;SDS011;51761;42.126;24.752;2023-02-15T09:14:08;26.67;;;14.48;;
65174;SDS011;51761;42.126;24.752;2023-02-15T09:16:40;27.55;;;15.63;;
65174;SDS011;51761;42.126;24.752;2023-02-15T09:19:06;29.92;;;15.88;;
65174;SDS011;51761;42.126;24.752;2023-02-15T09:21:33;34.92;;;15.95;;
65174;SDS011;51761;42.126;24.752;2023-02-15T09:24:02;28.95;;;16.20;;
65174;SDS011;51761;42.126;24.752;2023-02-15T09:26:31;32.63;;;16.00;;
65174;SDS011;51761;42.126;24.752;2023-02-15T09:28:58;28.48;;;15.73;;
65174;SDS011;51761;42.126;24.752;2023-02-15T09:31:32;29.13;;;16.15;;
65174;SDS011;51761;42.126;24.752;2023-02-15T09:34:01;28.67;;;15.65;;
65174;SDS011;51761;42.126;24.752;2023-02-15T09:36:32;28.80;;;15.88;;
65174;SDS011;51761;42.126;24.752;2023-02-15T09:55:47;26.35;;;14.68;;
65174;SDS011;51761;42.126;24.752;2023-02-15T10:31:22;23.88;;;13.52;;
65174;SDS011;51761;42.126;24.752;2023-02-15T10:34:18;27.45;;;15.15;;
65174;SDS011;51761;42.126;24.752;2023-02-15T10:53:18;25.45;;;13.98;;
65174;SDS011;51761;42.126;24.752;2023-02-15T11:06:34;26.20;;;12.23;;
65174;SDS011;51761;42.126;24.752;2023-02-15T11:09:07;28.27;;;12.13;;
65174;SDS011;51761;42.126;24.752;2023-02-15T11:11:38;22.90;;;12.70;;
65174;SDS011;51761;42.126;24.752;2023-02-15T11:14:14;25.70;;;13.73;;
65174;SDS011;51761;42.126;24.752;2023-02-15T11:16:44;22.40;;;13.23;;
65174;SDS011;51761;42.126;24.752;2023-02-15T11:19:17;31.13;;;14.98;;
65174;SDS011;51761;42.126;24.752;2023-02-15T11:21:50;27.33;;;15.57;;
65174;SDS011;51761;42.126;24.752;2023-02-15T11:24:20;25.40;;;13.60;;
65174;SDS011;51761;42.126;24.752;2023-02-15T11:32:21;35.38;;;18.65;;
65174;SDS011;51761;42.126;24.752;2023-02-15T11:34:52;63.58;;;27.77;;
65174;SDS011;51761;42.126;24.752;2023-02-15T11:37:24;31.50;;;15.55;;
65174;SDS011;51761;42.126;24.752;2023-02-15T11:39:59;45.45;;;20.98;;
65174;SDS011;51761;42.126;24.752;2023-02-15T11:42:26;27.92;;;14.27;;
65174;SDS011;51761;42.126;24.752;2023-02-15T11:45:07;18.98;;;12.10;;
65174;SDS011;51761;42.126;24.752;2023-02-15T11:47:41;25.67;;;13.25;;
65174;SDS011;51761;42.126;24.752;2023-02-15T11:50:12;54.65;;;29.02;;
65174;SDS011;51761;42.126;24.752;2023-02-15T11:52:43;37.88;;;20.13;;
65174;SDS011;51761;42.126;24.752;2023-02-15T11:55:12;23.65;;;13.63;;
65174;SDS011;51761;42.126;24.752;2023-02-15T11:57:43;25.27;;;12.05;;
65174;SDS011;51761;42.126;24.752;2023-02-15T12:02:56;25.45;;;13.15;;
65174;SDS011;51761;42.126;24.752;2023-02-15T12:05:23;21.27;;;12.18;;
65174;SDS011;51761;42.126;24.752;2023-02-15T12:07:52;23.95;;;13.20;;
65174;SDS011;51761;42.126;24.752;2023-02-15T12:10:23;23.83;;;13.77;;
65174;SDS011;51761;42.126;24.752;2023-02-15T12:13:17;22.40;;;12.80;;
65174;SDS011;51761;42.126;24.752;2023-02-15T12:15:45;22.60;;;13.98;;
65174;SDS011;51761;42.126;24.752;2023-02-15T12:23:41;21.90;;;13.00;;
65174;SDS011;51761;42.126;24.752;2023-02-15T12:26:12;24.30;;;12.80;;
65174;SDS011;51761;42.126;24.752;2023-02-15T12:28:40;20.75;;;12.93;;
65174;SDS011;51761;42.126;24.752;2023-02-15T12:31:18;21.50;;;11.75;;
65174;SDS011;51761;42.126;24.752;2023-02-15T12:33:53;29.80;;;12.53;;
65174;SDS011;51761;42.126;24.752;2023-02-15T12:36:24;27.33;;;11.85;;
65174;SDS011;51761;42.126;24.752;2023-02-15T12:39:03;37.97;;;19.83;;
65174;SDS011;51761;42.126;24.752;2023-02-15T12:42:13;23.73;;;13.77;;
65174;SDS011;51761;42.126;24.752;2023-02-15T12:44:40;18.77;;;11.93;;
65174;SDS011;51761;42.126;24.752;2023-02-15T12:47:19;20.80;;;11.45;;
65174;SDS011;51761;42.126;24.752;2023-02-15T12:50:04;20.80;;;10.60;;
65174;SDS011;51761;42.126;24.752;2023-02-15T12:52:30;23.27;;;11.75;;
65174;SDS011;51761;42.126;24.752;2023-02-15T12:54:55;22.35;;;13.30;;
65174;SDS011;51761;42.126;24.752;2023-02-15T12:58:08;36.22;;;19.25;;
65174;SDS011;51761;42.126;24.752;2023-02-15T13:00:34;22.05;;;12.65;;
65174;SDS011;51761;42.126;24.752;2023-02-15T13:03:00;21.23;;;11.65;;
65174;SDS011;51761;42.126;24.752;2023-02-15T13:05:32;20.35;;;10.98;;
65174;SDS011;51761;42.126;24.752;2023-02-15T13:07:58;17.58;;;10.57;;
65174;SDS011;51761;42.126;24.752;2023-02-15T13:13:00;50.15;;;25.75;;
65174;SDS011;51761;42.126;24.752;2023-02-15T13:18:42;18.15;;;10.30;;
65174;SDS011;51761;42.126;24.752;2023-02-15T13:23:47;16.52;;;10.32;;
65174;SDS011;51761;42.126;24.752;2023-02-15T13:26:19;17.48;;;10.20;;
65174;SDS011;51761;42.126;24.752;2023-02-15T13:28:48;18.40;;;10.73;;
65174;SDS011;51761;42.126;24.752;2023-02-15T13:31:18;31.13;;;15.75;;
65174;SDS011;51761;42.126;24.752;2023-02-15T13:33:48;20.83;;;11.65;;
65174;SDS011;51761;42.126;24.752;2023-02-15T13:50:03;39.72;;;20.60;;
65174;SDS011;51761;42.126;24.752;2023-02-15T13:52:35;34.50;;;17.45;;
65174;SDS011;51761;42.126;24.752;2023-02-15T13:57:57;22.88;;;12.73;;
65174;SDS011;51761;42.126;24.752;2023-02-15T14:03:50;25.50;;;12.52;;
65174;SDS011;51761;42.126;24.752;2023-02-15T14:09:05;21.08;;;12.80;;
65174;SDS011;51761;42.126;24.752;2023-02-15T14:19:29;23.27;;;12.32;;
65174;SDS011;51761;42.126;24.752;2023-02-15T14:22:13;22.50;;;12.23;;
65174;SDS011;51761;42.126;24.752;2023-02-15T14:30:37;23.30;;;12.45;;
65174;SDS011;51761;42.126;24.752;2023-02-15T14:35:54;25.17;;;11.18;;
65174;SDS011;51761;42.126;24.752;2023-02-15T14:41:10;25.42;;;12.43;;
65174;SDS011;51761;42.126;24.752;2023-02-15T14:49:22;22.75;;;12.05;;
65174;SDS011;51761;42.126;24.752;2023-02-15T14:56:42;22.65;;;13.40;;
65174;SDS011;51761;42.126;24.752;2023-02-15T14:59:21;25.33;;;11.77;;
65174;SDS011;51761;42.126;24.752;2023-02-15T15:01:58;20.73;;;12.35;;
65174;SDS011;51761;42.126;24.752;2023-02-15T15:04:45;21.00;;;12.55;;
65174;SDS011;51761;42.126;24.752;2023-02-15T15:07:44;32.60;;;13.10;;
65174;SDS011;51761;42.126;24.752;2023-02-15T15:12:46;24.27;;;13.00;;
65174;SDS011;51761;42.126;24.752;2023-02-15T15:15:32;24.52;;;12.23;;
65174;SDS011;51761;42.126;24.752;2023-02-15T15:47:53;29.35;;;14.65;;
65174;SDS011;51761;42.126;24.752;2023-02-15T15:50:27;34.33;;;15.50;;
65174;SDS011;51761;42.126;24.752;2023-02-15T15:52:55;37.15;;;17.33;;
65174;SDS011;51761;42.126;24.752;2023-02-15T15:55:24;40.47;;;19.23;;
65174;SDS011;51761;42.126;24.752;2023-02-15T15:57:53;38.45;;;18.08;;
65174;SDS011;51761;42.126;24.752;2023-02-15T16:00:36;33.17;;;16.83;;
65174;SDS011;51761;42.126;24.752;2023-02-15T16:03:26;32.00;;;16.88;;
65174;SDS011;51761;42.126;24.752;2023-02-15T16:05:53;38.28;;;19.13;;
65174;SDS011;51761;42.126;24.752;2023-02-15T16:10:54;40.58;;;20.13;;
65174;SDS011;51761;42.126;24.752;2023-02-15T16:13:21;39.63;;;20.92;;
65174;SDS011;51761;42.126;24.752;2023-02-15T16:15:46;44.15;;;20.08;;
65174;SDS011;51761;42.126;24.752;2023-02-15T16:18:17;49.60;;;22.85;;
65174;SDS011;51761;42.126;24.752;2023-02-15T16:20:55;46.40;;;17.75;;
65174;SDS011;51761;42.126;24.752;2023-02-15T16:27:04;36.42;;;16.02;;
65174;SDS011;51761;42.126;24.752;2023-02-15T16:29:15;35.35;;;16.05;;
65174;SDS011;51761;42.126;24.752;2023-02-15T16:31:42;38.53;;;15.85;;
65174;SDS011;51761;42.126;24.752;2023-02-15T16:34:16;35.08;;;15.13;;
65174;SDS011;51761;42.126;24.752;2023-02-15T16:39:12;31.35;;;16.38;;
65174;SDS011;51761;42.126;24.752;2023-02-15T16:41:43;38.60;;;17.35;;
65174;SDS011;51761;42.126;24.752;2023-02-15T16:44:20;44.40;;;19.90;;
65174;SDS011;51761;42.126;24.752;2023-02-15T16:46:46;64.55;;;25.70;;
65174;SDS011;51761;42.126;24.752;2023-02-15T16:49:20;59.08;;;24.08;;
65174;SDS011;51761;42.126;24.752;2023-02-15T16:54:24;51.10;;;23.85;;
65174;SDS011;51761;42.126;24.752;2023-02-15T16:56:51;65.63;;;25.35;;
65174;SDS011;51761;42.126;24.752;2023-02-15T17:02:18;46.08;;;22.35;;
65174;SDS011;51761;42.126;24.752;2023-02-15T17:05:00;45.03;;;20.92;;
65174;SDS011;51761;42.126;24.752;2023-02-15T17:07:31;56.63;;;21.27;;
65174;SDS011;51761;42.126;24.752;2023-02-15T17:09:58;63.38;;;22.27;;
65174;SDS011;51761;42.126;24.752;2023-02-15T17:12:43;59.25;;;29.08;;
65174;SDS011;51761;42.126;24.752;2023-02-15T17:17:54;58.67;;;24.52;;
65174;SDS011;51761;42.126;24.752;2023-02-15T17:20:22;71.68;;;28.45;;
65174;SDS011;51761;42.126;24.752;2023-02-15T17:22:49;60.03;;;26.65;;
65174;SDS011;51761;42.126;24.752;2023-02-15T17:25:23;65.43;;;27.27;;
65174;SDS011;51761;42.126;24.752;2023-02-15T17:27:58;51.53;;;23.15;;
65174;SDS011;51761;42.126;24.752;2023-02-15T17:30:26;47.25;;;22.85;;
65174;SDS011;51761;42.126;24.752;2023-02-15T17:32:59;53.90;;;22.90;;
65174;SDS011;51761;42.126;24.752;2023-02-15T17:35:28;39.25;;;18.02;;
65174;SDS011;51761;42.126;24.752;2023-02-15T17:40:44;37.58;;;19.08;;
65174;SDS011;51761;42.126;24.752;2023-02-15T17:43:09;53.63;;;21.52;;
65174;SDS011;51761;42.126;24.752;2023-02-15T17:45:46;44.22;;;21.27;;
65174;SDS011;51761;42.126;24.752;2023-02-15T17:51:00;116.68;;;51.17;;
65174;SDS011;51761;42.126;24.752;2023-02-15T17:53:27;79.88;;;34.33;;
65174;SDS011;51761;42.126;24.752;2023-02-15T17:55:53;82.90;;;34.28;;
65174;SDS011;51761;42.126;24.752;2023-02-15T17:58:19;77.60;;;27.77;;
65174;SDS011;51761;42.126;24.752;2023-02-15T18:00:46;77.30;;;32.40;;
65174;SDS011;51761;42.126;24.752;2023-02-15T18:06:33;96.43;;;38.03;;
65174;SDS011;51761;42.126;24.752;2023-02-15T18:09:19;210.50;;;89.13;;
65174;SDS011;51761;42.126;24.752;2023-02-15T18:12:18;87.90;;;36.15;;
65174;SDS011;51761;42.126;24.752;2023-02-15T18:14:47;83.50;;;36.92;;
65174;SDS011;51761;42.126;24.752;2023-02-15T18:17:14;85.72;;;38.22;;
65174;SDS011;51761;42.126;24.752;2023-02-15T18:19:41;86.38;;;37.42;;
65174;SDS011;51761;42.126;24.752;2023-02-15T18:22:10;80.60;;;35.88;;
65174;SDS011;51761;42.126;24.752;2023-02-15T18:24:37;76.47;;;31.73;;